sensor_id;sensor_type;location;lat;lon;timestamp;P1;durP1;ratioP1;P2;durP2;ratioP2
7747;SDS011;3918;42.564;23.164;2024-02-23T05:02:27;8.15;;;5.80;;
7747;SDS011;3918;42.564;23.164;2024-02-23T05:05:00;5.32;;;4.18;;
7747;SDS011;3918;42.564;23.164;2024-02-23T05:07:26;5.72;;;4.18;;
7747;SDS011;3918;42.564;23.164;2024-02-23T05:09:53;7.10;;;5.55;;
7747;SDS011;3918;42.564;23.164;2024-02-23T05:12:20;9.50;;;6.43;;
7747;SDS011;3918;42.564;23.164;2024-02-23T05:14:47;12.25;;;6.30;;
7747;SDS011;3918;42.564;23.164;2024-02-23T05:17:14;6.05;;;5.05;;
7747;SDS011;3918;42.564;23.164;2024-02-23T05:19:42;6.07;;;5.20;;
7747;SDS011;3918;42.564;23.164;2024-02-23T05:22:09;8.00;;;5.40;;
7747;SDS011;3918;42.564;23.164;2024-02-23T05:24:35;8.45;;;5.97;;
7747;SDS011;3918;42.564;23.164;2024-02-23T05:27:02;5.93;;;5.32;;
7747;SDS011;3918;42.564;23.164;2024-02-23T05:29:29;7.47;;;5.97;;
7747;SDS011;3918;42.564;23.164;2024-02-23T05:31:56;11.10;;;7.60;;
7747;SDS011;3918;42.564;23.164;2024-02-23T05:34:22;9.18;;;6.20;;
7747;SDS011;3918;42.564;23.164;2024-02-23T05:36:51;9.90;;;6.45;;
7747;SDS011;3918;42.564;23.164;2024-02-23T05:39:17;4.63;;;3.45;;
7747;SDS011;3918;42.564;23.164;2024-02-23T05:41:44;8.52;;;5.10;;
7747;SDS011;3918;42.564;23.164;2024-02-23T05:44:11;6.10;;;5.28;;
7747;SDS011;3918;42.564;23.164;2024-02-23T05:46:38;8.23;;;6.50;;
7747;SDS011;3918;42.564;23.164;2024-02-23T05:49:07;6.43;;;5.22;;
7747;SDS011;3918;42.564;23.164;2024-02-23T05:51:34;8.63;;;7.25;;
7747;SDS011;3918;42.564;23.164;2024-02-23T05:54:02;7.68;;;6.22;;
7747;SDS011;3918;42.564;23.164;2024-02-23T05:56:29;5.43;;;4.57;;
7747;SDS011;3918;42.564;23.164;2024-02-23T05:58:56;7.20;;;5.95;;
7747;SDS011;3918;42.564;23.164;2024-02-23T06:01:23;9.25;;;7.43;;
7747;SDS011;3918;42.564;23.164;2024-02-23T06:03:49;8.15;;;6.22;;
7747;SDS011;3918;42.564;23.164;2024-02-23T06:06:18;8.35;;;5.80;;
7747;SDS011;3918;42.564;23.164;2024-02-23T06:08:45;9.27;;;7.40;;
7747;SDS011;3918;42.564;23.164;2024-02-23T06:11:16;5.78;;;4.90;;
7747;SDS011;3918;42.564;23.164;2024-02-23T06:13:42;9.77;;;7.15;;
7747;SDS011;3918;42.564;23.164;2024-02-23T06:16:09;6.80;;;5.68;;
7747;SDS011;3918;42.564;23.164;2024-02-23T06:18:38;8.82;;;5.30;;
7747;SDS011;3918;42.564;23.164;2024-02-23T06:21:10;8.63;;;5.80;;
7747;SDS011;3918;42.564;23.164;2024-02-23T06:23:39;11.60;;;7.65;;
7747;SDS011;3918;42.564;23.164;2024-02-23T06:26:06;11.25;;;6.30;;
7747;SDS011;3918;42.564;23.164;2024-02-23T06:28:34;9.02;;;6.20;;
7747;SDS011;3918;42.564;23.164;2024-02-23T06:31:02;8.70;;;5.65;;
7747;SDS011;3918;42.564;23.164;2024-02-23T06:33:29;5.80;;;4.88;;
7747;SDS011;3918;42.564;23.164;2024-02-23T06:35:56;8.40;;;5.90;;
7747;SDS011;3918;42.564;23.164;2024-02-23T06:38:23;7.43;;;5.35;;
7747;SDS011;3918;42.564;23.164;2024-02-23T06:40:50;9.00;;;5.28;;
7747;SDS011;3918;42.564;23.164;2024-02-23T06:43:17;6.30;;;5.32;;
7747;SDS011;3918;42.564;23.164;2024-02-23T06:45:45;7.45;;;5.55;;
7747;SDS011;3918;42.564;23.164;2024-02-23T06:48:12;4.72;;;4.07;;
7747;SDS011;3918;42.564;23.164;2024-02-23T06:50:39;7.65;;;5.22;;
7747;SDS011;3918;42.564;23.164;2024-02-23T06:53:06;3.35;;;3.05;;
7747;SDS011;3918;42.564;23.164;2024-02-23T06:55:33;6.43;;;4.85;;
7747;SDS011;3918;42.564;23.164;2024-02-23T06:58:00;7.13;;;4.38;;
7747;SDS011;3918;42.564;23.164;2024-02-23T07:00:27;5.63;;;3.83;;
7747;SDS011;3918;42.564;23.164;2024-02-23T07:02:56;5.03;;;3.95;;
7747;SDS011;3918;42.564;23.164;2024-02-23T07:05:24;5.00;;;3.90;;
7747;SDS011;3918;42.564;23.164;2024-02-23T07:07:50;5.18;;;4.38;;
7747;SDS011;3918;42.564;23.164;2024-02-23T07:10:17;6.93;;;4.60;;
7747;SDS011;3918;42.564;23.164;2024-02-23T07:12:45;7.05;;;4.35;;
7747;SDS011;3918;42.564;23.164;2024-02-23T07:15:12;5.88;;;4.40;;
7747;SDS011;3918;42.564;23.164;2024-02-23T07:17:39;6.57;;;4.78;;
7747;SDS011;3918;42.564;23.164;2024-02-23T07:20:07;5.63;;;4.28;;
7747;SDS011;3918;42.564;23.164;2024-02-23T07:22:35;5.10;;;4.13;;
7747;SDS011;3918;42.564;23.164;2024-02-23T07:25:01;4.80;;;4.32;;
7747;SDS011;3918;42.564;23.164;2024-02-23T07:27:29;6.55;;;4.72;;
7747;SDS011;3918;42.564;23.164;2024-02-23T07:29:56;5.05;;;4.45;;
7747;SDS011;3918;42.564;23.164;2024-02-23T07:32:22;4.53;;;4.15;;
7747;SDS011;3918;42.564;23.164;2024-02-23T07:34:49;4.45;;;4.05;;
7747;SDS011;3918;42.564;23.164;2024-02-23T07:37:17;5.40;;;4.07;;
7747;SDS011;3918;42.564;23.164;2024-02-23T07:39:44;4.13;;;3.70;;
7747;SDS011;3918;42.564;23.164;2024-02-23T07:42:11;5.10;;;3.00;;
7747;SDS011;3918;42.564;23.164;2024-02-23T07:44:39;5.18;;;3.80;;
7747;SDS011;3918;42.564;23.164;2024-02-23T07:47:06;5.57;;;4.70;;
7747;SDS011;3918;42.564;23.164;2024-02-23T07:49:33;5.13;;;4.05;;
7747;SDS011;3918;42.564;23.164;2024-02-23T07:52:00;6.63;;;5.38;;
7747;SDS011;3918;42.564;23.164;2024-02-23T07:54:28;4.13;;;3.50;;
7747;SDS011;3918;42.564;23.164;2024-02-23T07:56:55;4.45;;;4.03;;
7747;SDS011;3918;42.564;23.164;2024-02-23T07:59:22;9.45;;;3.97;;
7747;SDS011;3918;42.564;23.164;2024-02-23T08:01:49;11.40;;;4.72;;
7747;SDS011;3918;42.564;23.164;2024-02-23T08:04:16;5.82;;;4.47;;
7747;SDS011;3918;42.564;23.164;2024-02-23T08:06:42;5.18;;;4.65;;
7747;SDS011;3918;42.564;23.164;2024-02-23T08:09:09;4.10;;;3.70;;
7747;SDS011;3918;42.564;23.164;2024-02-23T08:11:39;4.28;;;3.88;;
7747;SDS011;3918;42.564;23.164;2024-02-23T08:14:06;4.97;;;4.18;;
7747;SDS011;3918;42.564;23.164;2024-02-23T08:16:33;4.80;;;3.83;;
7747;SDS011;3918;42.564;23.164;2024-02-23T08:19:00;6.30;;;3.88;;
7747;SDS011;3918;42.564;23.164;2024-02-23T08:21:27;3.72;;;3.33;;
7747;SDS011;3918;42.564;23.164;2024-02-23T08:23:54;6.40;;;4.30;;
7747;SDS011;3918;42.564;23.164;2024-02-23T08:26:20;7.05;;;4.30;;
7747;SDS011;3918;42.564;23.164;2024-02-23T08:28:48;5.65;;;3.75;;
7747;SDS011;3918;42.564;23.164;2024-02-23T08:31:15;4.25;;;3.50;;
7747;SDS011;3918;42.564;23.164;2024-02-23T08:33:43;4.55;;;3.80;;
7747;SDS011;3918;42.564;23.164;2024-02-23T08:36:10;3.40;;;3.10;;
7747;SDS011;3918;42.564;23.164;2024-02-23T08:38:36;3.80;;;3.30;;
7747;SDS011;3918;42.564;23.164;2024-02-23T08:41:04;3.60;;;3.08;;
7747;SDS011;3918;42.564;23.164;2024-02-23T08:43:31;3.58;;;3.28;;
7747;SDS011;3918;42.564;23.164;2024-02-23T08:45:59;2.97;;;2.78;;
7747;SDS011;3918;42.564;23.164;2024-02-23T08:48:25;3.97;;;3.17;;
7747;SDS011;3918;42.564;23.164;2024-02-23T08:50:53;4.15;;;3.10;;
7747;SDS011;3918;42.564;23.164;2024-02-23T08:53:20;3.80;;;3.50;;
7747;SDS011;3918;42.564;23.164;2024-02-23T08:55:47;3.67;;;3.38;;
7747;SDS011;3918;42.564;23.164;2024-02-23T08:58:14;4.45;;;3.33;;
7747;SDS011;3918;42.564;23.164;2024-02-23T09:00:40;3.25;;;2.95;;
7747;SDS011;3918;42.564;23.164;2024-02-23T09:03:09;2.72;;;2.53;;
7747;SDS011;3918;42.564;23.164;2024-02-23T09:05:36;4.15;;;3.35;;
7747;SDS011;3918;42.564;23.164;2024-02-23T09:08:04;2.40;;;2.20;;
7747;SDS011;3918;42.564;23.164;2024-02-23T09:10:31;2.22;;;2.08;;
7747;SDS011;3918;42.564;23.164;2024-02-23T09:12:59;2.40;;;2.30;;
7747;SDS011;3918;42.564;23.164;2024-02-23T09:15:28;2.58;;;2.33;;
7747;SDS011;3918;42.564;23.164;2024-02-23T09:17:55;3.97;;;2.40;;
7747;SDS011;3918;42.564;23.164;2024-02-23T09:20:24;2.63;;;2.42;;
7747;SDS011;3918;42.564;23.164;2024-02-23T09:22:51;1.70;;;1.60;;
7747;SDS011;3918;42.564;23.164;2024-02-23T09:25:18;2.85;;;2.65;;
7747;SDS011;3918;42.564;23.164;2024-02-23T09:27:45;2.53;;;2.33;;
7747;SDS011;3918;42.564;23.164;2024-02-23T09:30:12;2.20;;;2.00;;
7747;SDS011;3918;42.564;23.164;2024-02-23T09:32:39;3.15;;;2.00;;
7747;SDS011;3918;42.564;23.164;2024-02-23T09:35:06;4.97;;;2.20;;
7747;SDS011;3918;42.564;23.164;2024-02-23T09:37:35;2.30;;;2.08;;
7747;SDS011;3918;42.564;23.164;2024-02-23T09:40:01;2.63;;;2.42;;
7747;SDS011;3918;42.564;23.164;2024-02-23T09:42:28;2.05;;;1.95;;
7747;SDS011;3918;42.564;23.164;2024-02-23T09:44:58;5.80;;;2.90;;
7747;SDS011;3918;42.564;23.164;2024-02-23T09:47:26;3.60;;;1.80;;
7747;SDS011;3918;42.564;23.164;2024-02-23T09:49:53;3.42;;;2.25;;
7747;SDS011;3918;42.564;23.164;2024-02-23T09:52:21;2.30;;;2.20;;
7747;SDS011;3918;42.564;23.164;2024-02-23T09:54:49;2.47;;;2.28;;
7747;SDS011;3918;42.564;23.164;2024-02-23T09:57:16;2.35;;;2.15;;
7747;SDS011;3918;42.564;23.164;2024-02-23T09:59:44;3.63;;;2.40;;
7747;SDS011;3918;42.564;23.164;2024-02-23T10:02:14;2.78;;;2.58;;
7747;SDS011;3918;42.564;23.164;2024-02-23T10:04:42;2.42;;;2.22;;
7747;SDS011;3918;42.564;23.164;2024-02-23T10:07:10;3.60;;;2.47;;
7747;SDS011;3918;42.564;23.164;2024-02-23T10:09:40;2.42;;;2.25;;
7747;SDS011;3918;42.564;23.164;2024-02-23T10:12:09;2.47;;;2.10;;
7747;SDS011;3918;42.564;23.164;2024-02-23T10:14:35;2.53;;;2.30;;
7747;SDS011;3918;42.564;23.164;2024-02-23T10:17:02;3.63;;;2.10;;
7747;SDS011;3918;42.564;23.164;2024-02-23T10:19:29;2.28;;;2.10;;
7747;SDS011;3918;42.564;23.164;2024-02-23T10:21:56;1.58;;;1.48;;
7747;SDS011;3918;42.564;23.164;2024-02-23T10:24:23;2.75;;;2.17;;
7747;SDS011;3918;42.564;23.164;2024-02-23T10:26:50;2.97;;;2.60;;
7747;SDS011;3918;42.564;23.164;2024-02-23T10:29:19;2.15;;;1.92;;
7747;SDS011;3918;42.564;23.164;2024-02-23T10:31:46;2.03;;;1.92;;
7747;SDS011;3918;42.564;23.164;2024-02-23T10:34:14;2.80;;;2.30;;
7747;SDS011;3918;42.564;23.164;2024-02-23T10:36:45;2.63;;;2.42;;
7747;SDS011;3918;42.564;23.164;2024-02-23T10:39:15;4.32;;;2.60;;
7747;SDS011;3918;42.564;23.164;2024-02-23T10:41:44;2.33;;;2.13;;
7747;SDS011;3918;42.564;23.164;2024-02-23T10:44:14;3.75;;;3.40;;
7747;SDS011;3918;42.564;23.164;2024-02-23T10:46:44;2.75;;;2.28;;
7747;SDS011;3918;42.564;23.164;2024-02-23T10:49:12;2.60;;;2.08;;
7747;SDS011;3918;42.564;23.164;2024-02-23T10:51:42;1.77;;;1.67;;
7747;SDS011;3918;42.564;23.164;2024-02-23T10:54:12;8.00;;;2.05;;
7747;SDS011;3918;42.564;23.164;2024-02-23T10:56:40;1.70;;;1.60;;
7747;SDS011;3918;42.564;23.164;2024-02-23T10:59:07;3.72;;;2.30;;
7747;SDS011;3918;42.564;23.164;2024-02-23T11:01:35;1.83;;;1.73;;
7747;SDS011;3918;42.564;23.164;2024-02-23T11:04:06;2.10;;;2.00;;
7747;SDS011;3918;42.564;23.164;2024-02-23T11:06:34;1.98;;;1.88;;
7747;SDS011;3918;42.564;23.164;2024-02-23T11:09:07;2.90;;;2.10;;
7747;SDS011;3918;42.564;23.164;2024-02-23T11:11:34;1.50;;;1.48;;
7747;SDS011;3918;42.564;23.164;2024-02-23T11:14:07;2.55;;;1.90;;
7747;SDS011;3918;42.564;23.164;2024-02-23T11:16:38;2.35;;;2.20;;
7747;SDS011;3918;42.564;23.164;2024-02-23T11:19:08;2.50;;;2.15;;
7747;SDS011;3918;42.564;23.164;2024-02-23T11:21:36;3.80;;;2.20;;
7747;SDS011;3918;42.564;23.164;2024-02-23T11:24:04;2.47;;;2.00;;
7747;SDS011;3918;42.564;23.164;2024-02-23T11:26:31;1.85;;;1.75;;
7747;SDS011;3918;42.564;23.164;2024-02-23T11:28:58;3.13;;;2.13;;
7747;SDS011;3918;42.564;23.164;2024-02-23T11:31:35;2.63;;;1.65;;
7747;SDS011;3918;42.564;23.164;2024-02-23T11:34:07;1.83;;;1.73;;
7747;SDS011;3918;42.564;23.164;2024-02-23T11:36:36;2.67;;;1.90;;
7747;SDS011;3918;42.564;23.164;2024-02-23T11:39:05;2.00;;;1.77;;
7747;SDS011;3918;42.564;23.164;2024-02-23T11:41:32;2.60;;;1.90;;
7747;SDS011;3918;42.564;23.164;2024-02-23T11:43:58;2.60;;;2.20;;
7747;SDS011;3918;42.564;23.164;2024-02-23T11:46:25;5.28;;;2.15;;
7747;SDS011;3918;42.564;23.164;2024-02-23T11:48:52;2.50;;;1.92;;
7747;SDS011;3918;42.564;23.164;2024-02-23T11:51:21;5.40;;;2.03;;
7747;SDS011;3918;42.564;23.164;2024-02-23T11:53:48;2.88;;;2.35;;
7747;SDS011;3918;42.564;23.164;2024-02-23T11:56:15;1.70;;;1.60;;
7747;SDS011;3918;42.564;23.164;2024-02-23T11:58:43;2.05;;;1.95;;
7747;SDS011;3918;42.564;23.164;2024-02-23T12:01:10;5.95;;;1.85;;
7747;SDS011;3918;42.564;23.164;2024-02-23T12:03:37;4.07;;;2.13;;
7747;SDS011;3918;42.564;23.164;2024-02-23T12:06:04;2.10;;;1.90;;
7747;SDS011;3918;42.564;23.164;2024-02-23T12:08:34;1.70;;;1.60;;
7747;SDS011;3918;42.564;23.164;2024-02-23T12:11:04;1.83;;;1.70;;
7747;SDS011;3918;42.564;23.164;2024-02-23T12:13:34;2.75;;;1.33;;
7747;SDS011;3918;42.564;23.164;2024-02-23T12:16:02;1.80;;;1.70;;
7747;SDS011;3918;42.564;23.164;2024-02-23T12:18:29;2.30;;;2.10;;
7747;SDS011;3918;42.564;23.164;2024-02-23T12:20:58;2.88;;;1.83;;
7747;SDS011;3918;42.564;23.164;2024-02-23T12:23:26;1.90;;;1.80;;
7747;SDS011;3918;42.564;23.164;2024-02-23T12:25:57;2.33;;;2.13;;
7747;SDS011;3918;42.564;23.164;2024-02-23T12:28:24;1.73;;;1.63;;
7747;SDS011;3918;42.564;23.164;2024-02-23T12:30:58;3.33;;;1.92;;
7747;SDS011;3918;42.564;23.164;2024-02-23T12:33:26;2.28;;;2.17;;
7747;SDS011;3918;42.564;23.164;2024-02-23T12:35:54;2.83;;;1.73;;
7747;SDS011;3918;42.564;23.164;2024-02-23T12:38:21;2.55;;;1.77;;
7747;SDS011;3918;42.564;23.164;2024-02-23T12:40:48;2.00;;;1.90;;
7747;SDS011;3918;42.564;23.164;2024-02-23T12:43:16;3.08;;;1.80;;
7747;SDS011;3918;42.564;23.164;2024-02-23T12:45:46;2.05;;;1.50;;
7747;SDS011;3918;42.564;23.164;2024-02-23T12:48:14;1.70;;;1.60;;
7747;SDS011;3918;42.564;23.164;2024-02-23T12:50:41;2.65;;;1.75;;
7747;SDS011;3918;42.564;23.164;2024-02-23T12:53:08;1.60;;;1.50;;
7747;SDS011;3918;42.564;23.164;2024-02-23T12:55:35;2.13;;;2.03;;
7747;SDS011;3918;42.564;23.164;2024-02-23T12:58:02;2.00;;;1.90;;
7747;SDS011;3918;42.564;23.164;2024-02-23T13:00:31;2.38;;;2.28;;
7747;SDS011;3918;42.564;23.164;2024-02-23T13:02:57;2.67;;;2.35;;
7747;SDS011;3918;42.564;23.164;2024-02-23T13:05:24;1.50;;;1.40;;
7747;SDS011;3918;42.564;23.164;2024-02-23T13:07:51;5.22;;;2.38;;
7747;SDS011;3918;42.564;23.164;2024-02-23T13:10:17;2.05;;;1.85;;
7747;SDS011;3918;42.564;23.164;2024-02-23T13:12:45;2.20;;;2.10;;
7747;SDS011;3918;42.564;23.164;2024-02-23T13:15:12;3.08;;;1.75;;
7747;SDS011;3918;42.564;23.164;2024-02-23T13:17:40;2.38;;;2.00;;
7747;SDS011;3918;42.564;23.164;2024-02-23T13:20:07;1.90;;;1.80;;
7747;SDS011;3918;42.564;23.164;2024-02-23T13:22:37;1.88;;;1.77;;
7747;SDS011;3918;42.564;23.164;2024-02-23T13:25:04;2.40;;;2.20;;
7747;SDS011;3918;42.564;23.164;2024-02-23T13:27:31;8.43;;;2.47;;
7747;SDS011;3918;42.564;23.164;2024-02-23T13:29:58;2.13;;;2.03;;
7747;SDS011;3918;42.564;23.164;2024-02-23T13:32:25;1.90;;;1.80;;
7747;SDS011;3918;42.564;23.164;2024-02-23T13:34:53;7.10;;;4.57;;
7747;SDS011;3918;42.564;23.164;2024-02-23T13:37:20;2.42;;;2.22;;
7747;SDS011;3918;42.564;23.164;2024-02-23T13:39:46;3.38;;;2.20;;
7747;SDS011;3918;42.564;23.164;2024-02-23T13:42:13;3.70;;;2.13;;
7747;SDS011;3918;42.564;23.164;2024-02-23T13:44:40;4.40;;;2.35;;
7747;SDS011;3918;42.564;23.164;2024-02-23T13:47:07;6.55;;;2.13;;
7747;SDS011;3918;42.564;23.164;2024-02-23T13:49:34;3.17;;;2.30;;
7747;SDS011;3918;42.564;23.164;2024-02-23T13:52:02;2.70;;;2.47;;
7747;SDS011;3918;42.564;23.164;2024-02-23T13:54:28;1.23;;;1.20;;
7747;SDS011;3918;42.564;23.164;2024-02-23T13:56:55;2.63;;;2.00;;
7747;SDS011;3918;42.564;23.164;2024-02-23T13:59:22;2.33;;;2.13;;
7747;SDS011;3918;42.564;23.164;2024-02-23T14:01:49;2.58;;;1.95;;
7747;SDS011;3918;42.564;23.164;2024-02-23T14:04:15;7.85;;;2.40;;
7747;SDS011;3918;42.564;23.164;2024-02-23T14:06:43;8.00;;;2.13;;
7747;SDS011;3918;42.564;23.164;2024-02-23T14:09:11;2.30;;;2.10;;
7747;SDS011;3918;42.564;23.164;2024-02-23T14:11:38;2.78;;;2.20;;
7747;SDS011;3918;42.564;23.164;2024-02-23T14:14:05;3.15;;;2.70;;
7747;SDS011;3918;42.564;23.164;2024-02-23T14:16:33;3.13;;;2.40;;
7747;SDS011;3918;42.564;23.164;2024-02-23T14:18:59;2.67;;;2.17;;
7747;SDS011;3918;42.564;23.164;2024-02-23T14:21:26;3.65;;;2.28;;
7747;SDS011;3918;42.564;23.164;2024-02-23T14:23:53;2.65;;;1.75;;
7747;SDS011;3918;42.564;23.164;2024-02-23T14:26:21;2.05;;;1.95;;
7747;SDS011;3918;42.564;23.164;2024-02-23T14:28:48;2.35;;;2.25;;
7747;SDS011;3918;42.564;23.164;2024-02-23T14:31:15;3.17;;;2.38;;
7747;SDS011;3918;42.564;23.164;2024-02-23T14:33:42;2.63;;;2.42;;
7747;SDS011;3918;42.564;23.164;2024-02-23T14:36:08;2.28;;;2.13;;
7747;SDS011;3918;42.564;23.164;2024-02-23T14:38:35;3.10;;;2.50;;
7747;SDS011;3918;42.564;23.164;2024-02-23T14:41:02;7.20;;;3.08;;
7747;SDS011;3918;42.564;23.164;2024-02-23T14:43:31;4.85;;;2.40;;
7747;SDS011;3918;42.564;23.164;2024-02-23T14:45:57;3.55;;;2.33;;
7747;SDS011;3918;42.564;23.164;2024-02-23T14:48:24;3.08;;;1.73;;
7747;SDS011;3918;42.564;23.164;2024-02-23T14:50:51;4.60;;;2.85;;
7747;SDS011;3918;42.564;23.164;2024-02-23T14:53:18;4.60;;;2.42;;
7747;SDS011;3918;42.564;23.164;2024-02-23T14:55:45;3.70;;;2.40;;
7747;SDS011;3918;42.564;23.164;2024-02-23T14:58:12;2.30;;;2.10;;
7747;SDS011;3918;42.564;23.164;2024-02-23T15:00:40;2.33;;;2.13;;
7747;SDS011;3918;42.564;23.164;2024-02-23T15:03:09;3.92;;;2.17;;
7747;SDS011;3918;42.564;23.164;2024-02-23T15:05:36;2.67;;;2.47;;
7747;SDS011;3918;42.564;23.164;2024-02-23T15:08:03;2.58;;;2.47;;
7747;SDS011;3918;42.564;23.164;2024-02-23T15:10:32;2.65;;;2.55;;
7747;SDS011;3918;42.564;23.164;2024-02-23T15:12:59;3.72;;;2.90;;
7747;SDS011;3918;42.564;23.164;2024-02-23T15:15:26;5.13;;;3.13;;
7747;SDS011;3918;42.564;23.164;2024-02-23T15:18:12;2.92;;;2.72;;
7747;SDS011;3918;42.564;23.164;2024-02-23T15:20:39;3.10;;;2.90;;
7747;SDS011;3918;42.564;23.164;2024-02-23T15:23:06;12.20;;;2.97;;
7747;SDS011;3918;42.564;23.164;2024-02-23T15:25:32;2.92;;;2.72;;
7747;SDS011;3918;42.564;23.164;2024-02-23T15:27:59;5.03;;;2.88;;
7747;SDS011;3918;42.564;23.164;2024-02-23T15:30:26;3.08;;;2.60;;
7747;SDS011;3918;42.564;23.164;2024-02-23T15:32:53;8.93;;;3.17;;
7747;SDS011;3918;42.564;23.164;2024-02-23T15:35:21;2.90;;;2.70;;
7747;SDS011;3918;42.564;23.164;2024-02-23T15:37:51;3.00;;;2.80;;
7747;SDS011;3918;42.564;23.164;2024-02-23T15:40:18;3.20;;;2.85;;
7747;SDS011;3918;42.564;23.164;2024-02-23T15:42:45;2.90;;;2.70;;
7747;SDS011;3918;42.564;23.164;2024-02-23T15:45:14;2.40;;;2.20;;
7747;SDS011;3918;42.564;23.164;2024-02-23T15:47:42;2.83;;;2.70;;
7747;SDS011;3918;42.564;23.164;2024-02-23T15:50:09;3.88;;;2.85;;
7747;SDS011;3918;42.564;23.164;2024-02-23T15:52:37;3.40;;;2.92;;
7747;SDS011;3918;42.564;23.164;2024-02-23T15:55:05;3.50;;;3.20;;
7747;SDS011;3918;42.564;23.164;2024-02-23T15:57:37;3.63;;;3.28;;
7747;SDS011;3918;42.564;23.164;2024-02-23T16:00:04;3.33;;;2.85;;
7747;SDS011;3918;42.564;23.164;2024-02-23T16:02:32;3.08;;;2.85;;
7747;SDS011;3918;42.564;23.164;2024-02-23T16:05:00;7.22;;;3.35;;
7747;SDS011;3918;42.564;23.164;2024-02-23T16:07:27;3.28;;;2.97;;
7747;SDS011;3918;42.564;23.164;2024-02-23T16:09:55;4.68;;;3.47;;
7747;SDS011;3918;42.564;23.164;2024-02-23T16:12:22;3.47;;;3.20;;
7747;SDS011;3918;42.564;23.164;2024-02-23T16:14:49;3.38;;;3.17;;
7747;SDS011;3918;42.564;23.164;2024-02-23T16:17:16;2.90;;;2.70;;
7747;SDS011;3918;42.564;23.164;2024-02-23T16:19:42;3.30;;;3.00;;
7747;SDS011;3918;42.564;23.164;2024-02-23T16:22:09;3.97;;;3.45;;
7747;SDS011;3918;42.564;23.164;2024-02-23T16:24:36;3.40;;;2.75;;
7747;SDS011;3918;42.564;23.164;2024-02-23T16:27:05;3.80;;;3.20;;
7747;SDS011;3918;42.564;23.164;2024-02-23T16:29:31;5.63;;;3.10;;
7747;SDS011;3918;42.564;23.164;2024-02-23T16:31:58;2.80;;;2.60;;
7747;SDS011;3918;42.564;23.164;2024-02-23T16:34:25;3.20;;;2.80;;
7747;SDS011;3918;42.564;23.164;2024-02-23T16:36:52;8.25;;;5.45;;
7747;SDS011;3918;42.564;23.164;2024-02-23T16:39:18;4.40;;;3.72;;
7747;SDS011;3918;42.564;23.164;2024-02-23T16:41:45;3.22;;;3.00;;
7747;SDS011;3918;42.564;23.164;2024-02-23T16:44:13;3.35;;;3.15;;
7747;SDS011;3918;42.564;23.164;2024-02-23T16:46:44;4.18;;;3.80;;
7747;SDS011;3918;42.564;23.164;2024-02-23T16:49:10;4.05;;;3.70;;
7747;SDS011;3918;42.564;23.164;2024-02-23T16:51:37;4.22;;;3.53;;
7747;SDS011;3918;42.564;23.164;2024-02-23T16:54:04;3.97;;;3.25;;
7747;SDS011;3918;42.564;23.164;2024-02-23T16:56:31;4.90;;;3.60;;
7747;SDS011;3918;42.564;23.164;2024-02-23T16:58:58;4.28;;;3.88;;
7747;SDS011;3918;42.564;23.164;2024-02-23T17:01:26;4.15;;;3.72;;
7747;SDS011;3918;42.564;23.164;2024-02-23T17:03:53;5.05;;;3.45;;
7747;SDS011;3918;42.564;23.164;2024-02-23T17:06:20;3.80;;;3.47;;
7747;SDS011;3918;42.564;23.164;2024-02-23T17:08:46;3.78;;;3.47;;
7747;SDS011;3918;42.564;23.164;2024-02-23T17:11:15;5.63;;;4.75;;
7747;SDS011;3918;42.564;23.164;2024-02-23T17:13:42;3.40;;;3.17;;
7747;SDS011;3918;42.564;23.164;2024-02-23T17:16:09;4.10;;;3.70;;
7747;SDS011;3918;42.564;23.164;2024-02-23T17:18:37;4.25;;;3.85;;
7747;SDS011;3918;42.564;23.164;2024-02-23T17:21:04;4.18;;;3.58;;
7747;SDS011;3918;42.564;23.164;2024-02-23T17:23:31;4.10;;;3.70;;
7747;SDS011;3918;42.564;23.164;2024-02-23T17:25:57;5.30;;;3.88;;
7747;SDS011;3918;42.564;23.164;2024-02-23T17:28:24;3.83;;;3.53;;
7747;SDS011;3918;42.564;23.164;2024-02-23T17:30:51;3.45;;;3.17;;
7747;SDS011;3918;42.564;23.164;2024-02-23T17:33:18;6.00;;;3.97;;
7747;SDS011;3918;42.564;23.164;2024-02-23T17:35:46;4.28;;;3.88;;
7747;SDS011;3918;42.564;23.164;2024-02-23T17:38:13;4.47;;;3.53;;
7747;SDS011;3918;42.564;23.164;2024-02-23T17:40:41;4.22;;;3.83;;
7747;SDS011;3918;42.564;23.164;2024-02-23T17:43:10;4.72;;;4.13;;
7747;SDS011;3918;42.564;23.164;2024-02-23T17:45:37;4.07;;;3.60;;
7747;SDS011;3918;42.564;23.164;2024-02-23T17:48:04;6.60;;;3.70;;
7747;SDS011;3918;42.564;23.164;2024-02-23T17:50:33;4.30;;;3.90;;
7747;SDS011;3918;42.564;23.164;2024-02-23T17:53:01;4.13;;;3.72;;
7747;SDS011;3918;42.564;23.164;2024-02-23T17:55:28;8.48;;;3.55;;
7747;SDS011;3918;42.564;23.164;2024-02-23T17:57:55;4.95;;;3.80;;
7747;SDS011;3918;42.564;23.164;2024-02-23T18:00:22;5.20;;;4.68;;
7747;SDS011;3918;42.564;23.164;2024-02-23T18:02:49;5.78;;;3.85;;
7747;SDS011;3918;42.564;23.164;2024-02-23T18:05:15;4.60;;;3.80;;
7747;SDS011;3918;42.564;23.164;2024-02-23T18:07:42;4.03;;;3.72;;
7747;SDS011;3918;42.564;23.164;2024-02-23T18:10:10;3.15;;;2.95;;
7747;SDS011;3918;42.564;23.164;2024-02-23T18:12:37;6.63;;;4.67;;
7747;SDS011;3918;42.564;23.164;2024-02-23T18:15:04;5.25;;;4.63;;
7747;SDS011;3918;42.564;23.164;2024-02-23T18:17:31;3.78;;;3.45;;
7747;SDS011;3918;42.564;23.164;2024-02-23T18:19:58;4.90;;;4.50;;
7747;SDS011;3918;42.564;23.164;2024-02-23T18:22:25;4.55;;;4.15;;
7747;SDS011;3918;42.564;23.164;2024-02-23T18:24:51;4.47;;;4.07;;
7747;SDS011;3918;42.564;23.164;2024-02-23T18:27:19;5.95;;;4.22;;
7747;SDS011;3918;42.564;23.164;2024-02-23T18:29:46;5.80;;;4.18;;
7747;SDS011;3918;42.564;23.164;2024-02-23T18:32:13;5.07;;;4.30;;
7747;SDS011;3918;42.564;23.164;2024-02-23T18:34:40;3.88;;;3.58;;
7747;SDS011;3918;42.564;23.164;2024-02-23T18:37:07;3.50;;;3.20;;
7747;SDS011;3918;42.564;23.164;2024-02-23T18:39:34;3.90;;;3.60;;
7747;SDS011;3918;42.564;23.164;2024-02-23T18:42:01;4.70;;;4.30;;
7747;SDS011;3918;42.564;23.164;2024-02-23T18:44:29;6.05;;;4.22;;
7747;SDS011;3918;42.564;23.164;2024-02-23T18:46:56;6.00;;;4.38;;
7747;SDS011;3918;42.564;23.164;2024-02-23T18:49:23;4.72;;;3.72;;
7747;SDS011;3918;42.564;23.164;2024-02-23T18:51:51;4.03;;;3.72;;
7747;SDS011;3918;42.564;23.164;2024-02-23T18:54:18;4.28;;;3.88;;
7747;SDS011;3918;42.564;23.164;2024-02-23T18:56:44;4.15;;;3.85;;
7747;SDS011;3918;42.564;23.164;2024-02-23T18:59:11;5.53;;;4.90;;
7747;SDS011;3918;42.564;23.164;2024-02-23T19:01:39;5.70;;;4.72;;
7747;SDS011;3918;42.564;23.164;2024-02-23T19:04:06;5.00;;;4.57;;
7747;SDS011;3918;42.564;23.164;2024-02-23T19:06:33;3.35;;;3.05;;
7747;SDS011;3918;42.564;23.164;2024-02-23T19:09:00;6.15;;;4.18;;
7747;SDS011;3918;42.564;23.164;2024-02-23T19:11:29;4.90;;;4.00;;
7747;SDS011;3918;42.564;23.164;2024-02-23T19:13:56;4.47;;;4.07;;
7747;SDS011;3918;42.564;23.164;2024-02-23T19:16:23;5.13;;;3.53;;
7747;SDS011;3918;42.564;23.164;2024-02-23T19:18:52;6.28;;;4.18;;
7747;SDS011;3918;42.564;23.164;2024-02-23T19:21:19;4.25;;;3.83;;
7747;SDS011;3918;42.564;23.164;2024-02-23T19:23:46;2.50;;;2.33;;
7747;SDS011;3918;42.564;23.164;2024-02-23T19:26:13;3.33;;;3.13;;
7747;SDS011;3918;42.564;23.164;2024-02-23T19:28:40;3.85;;;3.55;;
7747;SDS011;3918;42.564;23.164;2024-02-23T19:31:07;4.88;;;4.45;;
7747;SDS011;3918;42.564;23.164;2024-02-23T19:33:34;3.38;;;3.08;;
7747;SDS011;3918;42.564;23.164;2024-02-23T19:36:02;4.35;;;3.95;;
7747;SDS011;3918;42.564;23.164;2024-02-23T19:38:30;5.20;;;4.15;;
7747;SDS011;3918;42.564;23.164;2024-02-23T19:40:56;4.85;;;4.45;;
7747;SDS011;3918;42.564;23.164;2024-02-23T19:43:27;4.28;;;3.97;;
7747;SDS011;3918;42.564;23.164;2024-02-23T19:45:53;4.03;;;3.67;;
7747;SDS011;3918;42.564;23.164;2024-02-23T19:48:20;6.07;;;3.95;;
7747;SDS011;3918;42.564;23.164;2024-02-23T19:50:47;5.18;;;4.68;;
7747;SDS011;3918;42.564;23.164;2024-02-23T19:53:15;13.18;;;6.28;;
7747;SDS011;3918;42.564;23.164;2024-02-23T19:55:43;4.32;;;3.55;;
7747;SDS011;3918;42.564;23.164;2024-02-23T19:58:10;5.38;;;4.32;;
7747;SDS011;3918;42.564;23.164;2024-02-23T20:00:36;3.97;;;3.50;;
